Time;durP1;ratioP1;P1;durP2;ratioP2;P2;SDS_P1;SDS_P2;PMS_P1;PMS_P2;Temp;Humidity;BMP_temperature;BMP_pressure;BME280_temperature;BME280_humidity;BME280_pressure;Samples;Min_cycle;Max_cycle;Signal;HPM_P1;HPM_P2
2023/04/15 00:01:04;;;;;;;3.80;3.20;;;;;;;5.94;100.00;94944.09;5076106;28;20481;-63
2023/04/15 00:03:30;;;;;;;3.50;3.17;;;;;;;5.87;100.00;94946.38;5086905;28;20025;-62
2023/04/15 00:05:57;;;;;;;3.17;2.97;;;;;;;5.84;100.00;94953.66;5078698;28;20427;-62
2023/04/15 00:08:22;;;;;;;2.75;2.55;;;;;;;5.85;100.00;94944.84;5079233;28;20365;-62
2023/04/15 00:10:48;;;;;;;3.75;2.80;;;;;;;5.86;100.00;94943.91;5081378;28;20081;-62
2023/04/15 00:13:14;;;;;;;3.08;2.88;;;;;;;5.88;100.00;94949.84;5079834;28;20033;-62
2023/04/15 00:15:40;;;;;;;6.32;2.53;;;;;;;5.86;100.00;94949.16;5082928;28;20036;-62
2023/04/15 00:18:06;;;;;;;2.30;2.10;;;;;;;5.86;100.00;94957.78;5082465;28;20033;-62
2023/04/15 00:20:33;;;;;;;2.97;2.10;;;;;;;5.91;100.00;94956.56;5077460;28;20469;-62
2023/04/15 00:22:59;;;;;;;2.22;2.13;;;;;;;5.95;100.00;94956.19;5092048;28;20460;-61
2023/04/15 00:25:25;;;;;;;2.05;1.98;;;;;;;5.90;100.00;94953.16;5084343;28;20107;-62
2023/04/15 00:27:50;;;;;;;4.60;2.20;;;;;;;5.73;100.00;94949.34;5083165;28;20147;-62
2023/04/15 00:30:16;;;;;;;2.10;1.90;;;;;;;5.68;100.00;94954.13;5084519;28;20039;-61
2023/04/15 00:32:41;;;;;;;2.00;1.90;;;;;;;5.70;100.00;94952.22;5076044;28;20142;-62
2023/04/15 00:35:07;;;;;;;2.22;2.00;;;;;;;5.70;100.00;94954.81;5082693;28;20454;-63
2023/04/15 00:37:34;;;;;;;2.28;2.10;;;;;;;5.73;100.00;94951.94;5089343;28;20032;-62
2023/04/15 00:39:59;;;;;;;2.55;2.30;;;;;;;5.65;100.00;94962.22;5083646;28;20144;-63
2023/04/15 00:42:26;;;;;;;2.97;2.60;;;;;;;5.64;100.00;94957.97;5086083;28;20040;-62
2023/04/15 00:44:52;;;;;;;2.40;2.30;;;;;;;5.69;100.00;94956.63;5076355;28;20113;-62
2023/04/15 00:47:17;;;;;;;2.97;2.40;;;;;;;5.76;100.00;94956.94;5084249;28;20029;-62
2023/04/15 00:49:43;;;;;;;3.63;3.00;;;;;;;5.73;100.00;94955.41;5074504;28;20138;-61
2023/04/15 00:52:08;;;;;;;2.70;2.60;;;;;;;5.67;100.00;94961.16;5079093;28;20035;-62
2023/04/15 00:54:34;;;;;;;3.92;2.60;;;;;;;5.68;100.00;94962.81;5078943;28;20028;-62
2023/04/15 00:57:00;;;;;;;3.65;3.17;;;;;;;5.81;100.00;94964.38;5080969;28;20077;-62
2023/04/15 00:59:26;;;;;;;3.60;3.25;;;;;;;5.77;100.00;94955.13;5077195;28;20029;-62
2023/04/15 01:01:52;;;;;;;4.47;3.25;;;;;;;5.91;100.00;94953.97;5085038;28;20115;-62
2023/04/15 01:04:17;;;;;;;3.47;3.25;;;;;;;5.91;100.00;94954.78;5087003;28;20102;-62
2023/04/15 01:06:42;;;;;;;3.65;3.35;;;;;;;5.84;100.00;94956.25;5081112;28;20102;-62
2023/04/15 01:09:08;;;;;;;4.65;3.42;;;;;;;5.89;100.00;94959.34;5082995;28;20036;-63
2023/04/15 01:11:34;;;;;;;4.60;4.20;;;;;;;5.80;100.00;94962.72;5086653;28;20378;-62
2023/04/15 01:14:00;;;;;;;6.40;4.90;;;;;;;5.76;100.00;94956.09;5086757;28;20032;-62
2023/04/15 01:16:27;;;;;;;6.10;4.43;;;;;;;5.74;100.00;94967.50;5080522;28;20024;-62
2023/04/15 01:18:53;;;;;;;4.53;4.13;;;;;;;5.79;100.00;94971.50;5089013;28;20035;-62
2023/04/15 01:21:18;;;;;;;4.03;3.72;;;;;;;5.71;100.00;94972.16;5081167;28;20455;-63
2023/04/15 01:23:47;;;;;;;4.22;3.85;;;;;;;5.64;100.00;94968.41;5085126;28;20025;-62
2023/04/15 01:26:13;;;;;;;5.55;4.32;;;;;;;5.60;100.00;94965.22;5092561;28;20034;-63
2023/04/15 01:28:38;;;;;;;4.57;4.05;;;;;;;5.65;100.00;94967.44;5081984;28;20435;-61
2023/04/15 01:31:10;;;;;;;5.75;4.30;;;;;;;5.60;100.00;94965.22;5081213;28;20032;-63
2023/04/15 01:33:36;;;;;;;7.65;4.05;;;;;;;5.54;100.00;94965.75;5078276;28;20052;-62
2023/04/15 01:36:02;;;;;;;6.07;3.85;;;;;;;5.49;100.00;94966.13;5086305;28;20042;-62
2023/04/15 01:38:28;;;;;;;5.60;4.40;;;;;;;5.51;100.00;94966.00;5079949;28;20098;-61
2023/04/15 01:40:54;;;;;;;4.45;4.05;;;;;;;5.54;100.00;94955.28;5083930;28;20051;-63
2023/04/15 01:43:19;;;;;;;4.70;4.30;;;;;;;5.57;100.00;94955.03;5082027;28;20445;-62
2023/04/15 01:45:45;;;;;;;4.40;4.07;;;;;;;5.62;100.00;94950.25;5084340;28;20050;-63
2023/04/15 01:48:11;;;;;;;4.38;3.97;;;;;;;5.61;100.00;94947.78;5087512;28;20039;-63
2023/04/15 01:50:37;;;;;;;4.78;4.30;;;;;;;5.64;100.00;94956.19;5086483;28;20028;-63
2023/04/15 01:53:02;;;;;;;4.20;3.80;;;;;;;5.57;100.00;94949.81;5086092;28;20040;-62
2023/04/15 01:55:29;;;;;;;5.47;3.83;;;;;;;5.52;100.00;94949.38;5086661;28;20024;-62
2023/04/15 01:57:55;;;;;;;4.85;4.40;;;;;;;5.54;100.00;94950.91;5083957;28;20034;-62
2023/04/15 02:00:21;;;;;;;4.13;3.83;;;;;;;5.46;100.00;94948.09;5086067;28;20112;-62
2023/04/15 02:02:46;;;;;;;4.57;4.18;;;;;;;5.47;100.00;94951.56;5079925;28;20082;-61
2023/04/15 02:05:12;;;;;;;4.32;4.00;;;;;;;5.39;100.00;94949.59;5083725;28;20016;-61
2023/04/15 02:07:37;;;;;;;4.20;3.90;;;;;;;5.36;100.00;94949.84;5093661;28;20529;-61
2023/04/15 02:10:03;;;;;;;4.85;4.45;;;;;;;5.37;100.00;94956.72;5088291;28;20055;-62
2023/04/15 02:12:28;;;;;;;6.43;5.60;;;;;;;5.34;100.00;94943.94;5077659;28;20435;-62
2023/04/15 02:14:54;;;;;;;5.30;4.95;;;;;;;5.28;100.00;94942.66;5079888;28;20024;-61
2023/04/15 02:17:20;;;;;;;6.47;4.80;;;;;;;5.28;100.00;94947.88;5081464;28;20016;-61
2023/04/15 02:19:45;;;;;;;5.38;4.65;;;;;;;5.30;100.00;94952.03;5083719;28;20571;-62
2023/04/15 02:22:17;;;;;;;7.85;4.65;;;;;;;5.38;100.00;94951.34;5085824;28;20101;-61
2023/04/15 02:24:42;;;;;;;6.47;4.80;;;;;;;5.39;100.00;94958.22;5081595;28;20408;-62
2023/04/15 02:27:08;;;;;;;4.30;4.00;;;;;;;5.42;100.00;94955.38;5088125;28;20059;-63
2023/04/15 02:29:33;;;;;;;4.50;3.90;;;;;;;5.42;100.00;94947.56;5085373;28;20350;-62
2023/04/15 02:31:59;;;;;;;3.55;3.25;;;;;;;5.45;100.00;94949.91;5079385;28;20017;-63
2023/04/15 02:34:26;;;;;;;6.95;5.07;;;;;;;5.48;100.00;94958.44;5078493;28;20116;-61
2023/04/15 02:36:55;;;;;;;5.55;4.32;;;;;;;5.43;100.00;94941.38;5084228;28;20210;-61
2023/04/15 02:39:21;;;;;;;4.05;3.58;;;;;;;5.40;100.00;94946.81;5086102;28;20525;-62
2023/04/15 02:41:50;;;;;;;5.13;3.90;;;;;;;5.40;100.00;94949.44;5083422;28;20052;-63
2023/04/15 02:44:19;;;;;;;4.07;3.80;;;;;;;5.53;100.00;94951.88;5083778;28;20491;-62
2023/04/15 02:46:47;;;;;;;3.53;3.25;;;;;;;5.57;100.00;94947.19;5083601;28;20047;-61
2023/04/15 02:49:13;;;;;;;4.20;3.90;;;;;;;5.50;100.00;94951.28;5083049;28;20035;-61
2023/04/15 02:51:38;;;;;;;4.20;3.80;;;;;;;5.44;100.00;94953.47;5081504;28;20035;-63
2023/04/15 02:54:04;;;;;;;4.07;3.85;;;;;;;5.49;100.00;94950.44;5079248;28;20061;-61
2023/04/15 02:56:29;;;;;;;4.57;4.18;;;;;;;5.47;100.00;94951.56;5082778;28;20054;-61
2023/04/15 02:58:55;;;;;;;6.30;4.43;;;;;;;5.51;100.00;94947.72;5078221;28;20020;-63
2023/04/15 03:01:21;;;;;;;4.75;4.35;;;;;;;5.56;100.00;94945.53;5076034;28;20028;-61
2023/04/15 03:03:46;;;;;;;4.90;4.47;;;;;;;5.51;100.00;94947.72;5077120;28;20021;-61
2023/04/15 03:06:11;;;;;;;6.35;4.60;;;;;;;5.40;100.00;94951.25;5079046;28;20059;-62
2023/04/15 03:08:37;;;;;;;5.05;4.65;;;;;;;5.40;100.00;94949.44;5080322;28;20160;-61
2023/04/15 03:11:03;;;;;;;6.65;4.60;;;;;;;5.40;100.00;94951.25;5085404;28;20028;-62
2023/04/15 03:13:28;;;;;;;4.70;4.30;;;;;;;5.32;100.00;94951.06;5076165;28;20012;-62
2023/04/15 03:15:54;;;;;;;4.75;4.35;;;;;;;5.29;100.00;94954.75;5076371;28;20107;-62
2023/04/15 03:18:19;;;;;;;7.10;4.82;;;;;;;5.37;100.00;94946.28;5083728;28;20036;-61
2023/04/15 03:20:45;;;;;;;4.85;4.38;;;;;;;5.41;100.00;94950.28;5075675;28;20028;-63
2023/04/15 03:23:10;;;;;;;6.95;4.57;;;;;;;5.41;100.00;94958.91;5089084;28;20183;-62
2023/04/15 03:25:36;;;;;;;5.63;4.50;;;;;;;5.52;100.00;94955.41;5084580;28;20054;-62
2023/04/15 03:28:02;;;;;;;5.15;4.65;;;;;;;5.49;100.00;94960.09;5092960;28;20048;-62
2023/04/15 03:30:28;;;;;;;6.88;4.60;;;;;;;5.42;100.00;94960.59;5086000;28;20119;-62
2023/04/15 03:32:53;;;;;;;4.97;4.47;;;;;;;5.40;100.00;94957.28;5080425;28;20038;-62
2023/04/15 03:35:19;;;;;;;4.88;4.47;;;;;;;5.43;100.00;94962.25;5084190;28;20115;-61
2023/04/15 03:37:44;;;;;;;5.32;4.35;;;;;;;5.41;100.00;94965.94;5085381;28;20032;-62
2023/04/15 03:40:10;;;;;;;5.18;4.65;;;;;;;5.44;100.00;94960.47;5084008;28;20390;-62
2023/04/15 03:42:39;;;;;;;5.18;4.68;;;;;;;5.42;100.00;94960.59;5083119;28;20029;-63
2023/04/15 03:45:06;;;;;;;5.45;4.75;;;;;;;5.37;100.00;94960.13;5078926;28;20449;-61
2023/04/15 03:47:31;;;;;;;4.95;4.47;;;;;;;5.35;100.00;94962.06;5081329;28;20024;-62
2023/04/15 03:49:57;;;;;;;5.00;4.60;;;;;;;5.35;100.00;94956.84;5089570;28;20129;-61
2023/04/15 03:52:22;;;;;;;5.68;4.68;;;;;;;5.39;100.00;94957.41;5075358;28;20028;-61
2023/04/15 03:54:48;;;;;;;5.53;5.13;;;;;;;5.43;100.00;94956.19;5075950;28;20476;-62
2023/04/15 03:57:13;;;;;;;4.85;4.55;;;;;;;5.49;100.00;94965.31;5082928;28;20242;-62
2023/04/15 03:59:39;;;;;;;5.30;4.80;;;;;;;5.45;100.00;94964.72;5082861;28;20096;-63
2023/04/15 04:02:04;;;;;;;6.03;5.45;;;;;;;5.36;100.00;94974.16;5083752;28;20074;-61
2023/04/15 04:04:29;;;;;;;7.15;5.15;;;;;;;5.31;100.00;94968.50;5079111;28;20146;-61
2023/04/15 04:06:55;;;;;;;5.43;4.95;;;;;;;5.29;100.00;94970.41;5081779;28;20055;-61
2023/04/15 04:09:20;;;;;;;5.30;4.90;;;;;;;5.27;100.00;94962.69;5076273;28;20028;-61
2023/04/15 04:11:46;;;;;;;5.50;5.00;;;;;;;5.26;100.00;94955.81;5089560;28;20024;-60
2023/04/15 04:14:11;;;;;;;5.30;4.80;;;;;;;5.33;100.00;94957.94;5084837;28;20449;-61
2023/04/15 04:16:36;;;;;;;6.60;5.50;;;;;;;5.32;100.00;94958.91;5081703;28;20027;-61
2023/04/15 04:19:02;;;;;;;6.07;5.53;;;;;;;5.26;100.00;94960.22;5083623;28;20149;-61
2023/04/15 04:21:28;;;;;;;5.60;5.10;;;;;;;5.22;100.00;94953.59;5071879;28;20067;-61
2023/04/15 04:23:53;;;;;;;5.93;5.53;;;;;;;5.22;100.00;94958.81;5080179;28;20458;-61
2023/04/15 04:26:18;;;;;;;6.28;5.68;;;;;;;5.18;100.00;94960.00;5084765;28;20032;-62
2023/04/15 04:28:44;;;;;;;5.15;4.75;;;;;;;5.17;100.00;94956.59;5086202;28;20054;-61
2023/04/15 04:31:10;;;;;;;4.70;4.40;;;;;;;5.14;100.00;94951.63;5085229;28;20097;-61
2023/04/15 04:33:35;;;;;;;5.18;4.72;;;;;;;5.16;100.00;94960.97;5092706;28;20494;-61
2023/04/15 04:36:01;;;;;;;5.55;4.95;;;;;;;5.18;100.00;94958.25;5087096;28;20500;-61
2023/04/15 04:38:26;;;;;;;5.38;4.93;;;;;;;5.12;100.00;94946.53;5074521;28;20082;-60
2023/04/15 04:40:51;;;;;;;5.28;4.80;;;;;;;5.16;100.00;94957.53;5076771;28;20016;-61
2023/04/15 04:43:17;;;;;;;4.93;4.63;;;;;;;5.21;100.00;94946.72;5089303;28;20028;-61
2023/04/15 04:45:42;;;;;;;5.32;4.93;;;;;;;5.19;100.00;94951.22;5082712;28;20016;-61
2023/04/15 04:48:09;;;;;;;6.55;5.95;;;;;;;5.23;100.00;94957.88;5077544;28;20354;-61
2023/04/15 04:50:35;;;;;;;5.93;5.43;;;;;;;5.56;100.00;94956.00;5082103;28;20026;-61
2023/04/15 04:53:01;;;;;;;6.50;6.03;;;;;;;5.23;100.00;94953.47;5085440;28;20013;-61
2023/04/15 04:55:26;;;;;;;6.57;6.07;;;;;;;5.16;100.00;94962.75;5092307;28;20610;-61
2023/04/15 04:57:52;;;;;;;7.60;6.90;;;;;;;5.12;100.00;94951.75;5081952;28;20046;-61
2023/04/15 05:00:18;;;;;;;6.45;6.00;;;;;;;5.07;100.00;94943.47;5095054;28;20028;-61
2023/04/15 05:02:44;;;;;;;6.38;5.85;;;;;;;5.08;100.00;94934.69;5090134;28;20055;-61
2023/04/15 05:05:10;;;;;;;6.13;5.53;;;;;;;5.13;100.00;94944.75;5077175;28;20017;-61
2023/04/15 05:07:39;;;;;;;5.50;5.10;;;;;;;5.14;100.00;94942.00;5092119;28;20028;-62
2023/04/15 05:10:05;;;;;;;6.93;6.22;;;;;;;5.18;100.00;94947.81;5080565;28;20112;-61
2023/04/15 05:12:31;;;;;;;5.82;5.35;;;;;;;5.28;100.00;94947.88;5078388;28;20020;-61
2023/04/15 05:14:56;;;;;;;5.35;5.03;;;;;;;5.40;100.00;94949.44;5081924;28;20158;-61
2023/04/15 05:17:22;;;;;;;5.80;5.30;;;;;;;5.38;100.00;94953.97;5086942;28;20461;-61
2023/04/15 05:19:47;;;;;;;6.10;5.60;;;;;;;5.34;100.00;94952.56;5076805;28;20093;-61
2023/04/15 05:22:13;;;;;;;5.63;4.82;;;;;;;5.79;100.00;94955.84;5076581;28;20016;-61
2023/04/15 05:24:38;;;;;;;4.53;4.13;;;;;;;5.70;100.00;94953.06;5080046;28;20031;-61
2023/04/15 05:27:04;;;;;;;5.05;4.75;;;;;;;5.67;100.00;94952.47;5078314;28;20049;-61
2023/04/15 05:29:29;;;;;;;4.50;4.20;;;;;;;5.66;100.00;94954.28;5080644;28;20718;-61
2023/04/15 05:31:55;;;;;;;4.78;4.47;;;;;;;5.51;100.00;94952.94;5078854;28;20023;-61
2023/04/15 05:34:21;;;;;;;6.20;5.70;;;;;;;5.47;100.00;94948.94;5080590;28;20024;-61
2023/04/15 05:36:46;;;;;;;5.88;5.40;;;;;;;5.44;100.00;94953.47;5079804;28;20035;-61
2023/04/15 05:39:12;;;;;;;7.20;6.50;;;;;;;5.42;100.00;94951.94;5084448;28;20044;-62
2023/04/15 05:41:37;;;;;;;6.68;6.07;;;;;;;5.56;100.00;94956.00;5077558;28;20637;-61
2023/04/15 05:44:03;;;;;;;6.07;5.63;;;;;;;5.54;100.00;94961.38;5082588;28;20030;-62
2023/04/15 05:46:28;;;;;;;6.10;5.70;;;;;;;5.54;100.00;94955.28;5080512;28;20421;-62
2023/04/15 05:48:54;;;;;;;7.57;6.80;;;;;;;5.58;100.00;94964.53;5085023;28;20020;-61
2023/04/15 05:51:20;;;;;;;6.32;5.72;;;;;;;5.65;100.00;94976.13;5080841;28;20760;-61
2023/04/15 05:53:45;;;;;;;5.65;5.25;;;;;;;5.60;100.00;94978.28;5076209;28;20017;-61
2023/04/15 05:56:11;;;;;;;4.38;4.07;;;;;;;5.71;100.00;94975.59;5092065;28;20399;-61
2023/04/15 05:58:36;;;;;;;4.50;4.20;;;;;;;5.86;100.00;94985.72;5088039;28;20016;-62
2023/04/15 06:01:02;;;;;;;4.47;4.18;;;;;;;5.88;100.00;94984.63;5077409;28;20052;-62
2023/04/15 06:03:28;;;;;;;4.43;4.10;;;;;;;5.84;100.00;94983.22;5082224;28;20092;-61
2023/04/15 06:05:53;;;;;;;4.60;4.20;;;;;;;5.88;100.00;94971.56;5078707;28;20626;-61
2023/04/15 06:08:19;;;;;;;4.38;4.13;;;;;;;5.78;100.00;94975.06;5080654;28;20046;-61
2023/04/15 06:10:45;;;;;;;4.07;3.88;;;;;;;5.68;100.00;94967.19;5084798;28;20027;-61
2023/04/15 06:13:10;;;;;;;4.35;4.00;;;;;;;5.69;100.00;94967.06;5078974;28;20032;-61
2023/04/15 06:15:36;;;;;;;4.93;4.63;;;;;;;5.68;100.00;94970.63;5078477;28;20077;-62
2023/04/15 06:18:02;;;;;;;7.75;7.15;;;;;;;5.83;100.00;94968.50;5075637;28;20028;-62
2023/04/15 06:20:27;;;;;;;12.38;11.27;;;;;;;5.72;100.00;94976.41;5085916;28;20023;-61
2023/04/15 06:22:52;;;;;;;7.22;6.63;;;;;;;5.59;100.00;94976.63;5089874;28;20024;-61
2023/04/15 06:25:18;;;;;;;5.57;5.07;;;;;;;5.42;100.00;94973.66;5087247;28;20561;-61
2023/04/15 06:27:44;;;;;;;6.10;5.70;;;;;;;5.40;100.00;94975.53;5081855;28;20027;-61
2023/04/15 06:30:10;;;;;;;6.88;6.35;;;;;;;5.43;100.00;94980.53;5083355;28;20054;-62
2023/04/15 06:32:35;;;;;;;5.97;5.47;;;;;;;5.49;100.00;94973.94;5084083;28;20354;-61
2023/04/15 06:35:01;;;;;;;5.72;5.32;;;;;;;5.39;100.00;94970.47;5080648;28;20469;-61
2023/04/15 06:37:26;;;;;;;10.00;8.00;;;;;;;5.32;100.00;94967.53;5086167;28;20043;-61
2023/04/15 06:39:52;;;;;;;8.48;7.72;;;;;;;5.37;100.00;94977.59;5086098;28;20155;-53
2023/04/15 06:42:17;;;;;;;7.05;6.45;;;;;;;5.35;100.00;94971.69;5078910;28;20987;-52
2023/04/15 06:44:43;;;;;;;7.82;7.07;;;;;;;5.28;100.00;94976.59;5077250;28;20035;-51
2023/04/15 06:47:08;;;;;;;6.13;5.70;;;;;;;5.38;100.00;94982.69;5079496;28;20028;-51
2023/04/15 06:49:34;;;;;;;6.97;5.05;;;;;;;5.43;100.00;94988.38;5082983;28;20481;-52
2023/04/15 06:52:00;;;;;;;6.05;5.63;;;;;;;5.60;100.00;94993.94;5081791;28;20396;-49
2023/04/15 06:54:26;;;;;;;6.57;5.90;;;;;;;5.62;100.00;94997.25;5076065;28;20373;-51
2023/04/15 06:56:51;;;;;;;11.52;10.50;;;;;;;5.54;100.00;94994.47;5082004;28;20159;-50
2023/04/15 06:59:17;;;;;;;17.48;15.73;;;;;;;5.65;100.00;94990.97;5081307;28;20347;-50
2023/04/15 07:01:43;;;;;;;14.25;12.88;;;;;;;5.59;100.00;94987.91;5087454;28;20110;-53
2023/04/15 07:04:08;;;;;;;18.60;16.70;;;;;;;5.61;100.00;94990.38;5081210;28;20017;-51
2023/04/15 07:06:34;;;;;;;6.40;5.88;;;;;;;5.58;100.00;94998.47;5080622;28;20409;-53
2023/04/15 07:09:02;;;;;;;4.30;4.10;;;;;;;5.60;100.00;94999.16;5087482;28;20319;-51
2023/04/15 07:11:27;;;;;;;5.30;3.10;;;;;;;5.78;100.00;94993.34;5084484;28;20454;-52
2023/04/15 07:13:53;;;;;;;3.22;3.03;;;;;;;5.67;100.00;94986.44;5080135;28;20102;-49
2023/04/15 07:16:18;;;;;;;3.58;3.38;;;;;;;5.70;100.00;94975.72;5077645;28;20107;-54
2023/04/15 07:18:43;;;;;;;5.85;5.30;;;;;;;5.82;100.00;94963.41;5074363;28;20108;-49
2023/04/15 07:21:09;;;;;;;8.63;7.57;;;;;;;5.93;100.00;94968.56;5086298;28;20028;-52
2023/04/15 07:23:35;;;;;;;7.90;7.07;;;;;;;5.97;100.00;94953.44;5074163;28;20033;-49
2023/04/15 07:26:00;;;;;;;4.68;4.38;;;;;;;6.06;100.00;94951.84;5086252;28;20020;-50
2023/04/15 07:28:26;;;;;;;7.35;6.85;;;;;;;6.01;100.00;94950.44;5082500;28;20024;-49
2023/04/15 07:30:51;;;;;;;12.98;11.93;;;;;;;6.05;100.00;94961.47;5077762;28;20136;-52
2023/04/15 07:33:16;;;;;;;7.40;6.70;;;;;;;6.07;100.00;94963.94;5077098;28;20021;-51
2023/04/15 07:35:42;;;;;;;5.65;5.25;;;;;;;6.10;100.00;94963.72;5084290;28;20028;-53
2023/04/15 07:38:07;;;;;;;4.93;4.63;;;;;;;6.08;100.00;94973.44;5079127;28;20027;-51
2023/04/15 07:40:33;;;;;;;5.10;4.70;;;;;;;6.02;100.00;94986.06;5077813;28;20048;-51
2023/04/15 07:42:58;;;;;;;4.13;3.90;;;;;;;6.10;100.00;94988.03;5081250;28;20020;-53
2023/04/15 07:45:24;;;;;;;3.38;3.10;;;;;;;6.15;100.00;94995.50;5080495;28;20046;-53
2023/04/15 07:47:52;;;;;;;5.93;5.43;;;;;;;6.17;100.00;94998.81;5079847;28;20023;-54
2023/04/15 07:50:18;;;;;;;5.13;4.55;;;;;;;6.09;100.00;95014.31;5078814;28;20039;-50
2023/04/15 07:52:44;;;;;;;5.78;5.32;;;;;;;6.16;100.00;95020.66;5080243;28;20070;-50
2023/04/15 07:55:10;;;;;;;4.45;4.07;;;;;;;6.09;100.00;95030.00;5097227;28;20032;-50
2023/04/15 07:57:36;;;;;;;5.07;4.78;;;;;;;6.05;100.00;95049.50;5081553;28;20111;-49
2023/04/15 08:00:04;;;;;;;6.05;4.78;;;;;;;6.08;100.00;95055.28;5085076;28;20445;-51
2023/04/15 08:02:30;;;;;;;7.47;6.63;;;;;;;6.06;100.00;95062.44;5090198;28;20032;-50
2023/04/15 08:04:56;;;;;;;3.85;3.65;;;;;;;6.07;100.00;95065.88;5090064;28;20102;-54
2023/04/15 08:07:22;;;;;;;4.72;3.80;;;;;;;5.90;100.00;95072.50;5079757;28;20031;-50
2023/04/15 08:09:47;;;;;;;3.15;2.85;;;;;;;5.96;100.00;95077.19;5077936;28;20035;-48
2023/04/15 08:12:13;;;;;;;3.53;2.50;;;;;;;5.81;100.00;95080.16;5076368;28;20040;-49
2023/04/15 08:14:42;;;;;;;2.63;2.50;;;;;;;5.78;100.00;95080.41;5081358;28;20020;-51
2023/04/15 08:17:07;;;;;;;2.33;2.10;;;;;;;5.70;100.00;95078.41;5080548;28;20025;-49
2023/04/15 08:19:33;;;;;;;3.42;2.92;;;;;;;5.94;100.00;95077.34;5082883;28;20024;-49
2023/04/15 08:21:58;;;;;;;5.57;5.18;;;;;;;6.00;100.00;95081.22;5090291;28;20032;-50
2023/04/15 08:24:25;;;;;;;4.72;4.32;;;;;;;5.93;100.00;95078.28;5083136;28;20044;-49
2023/04/15 08:26:51;;;;;;;4.93;4.53;;;;;;;6.00;100.00;95076.00;5079974;28;20025;-52
2023/04/15 08:29:16;;;;;;;3.75;3.55;;;;;;;6.07;100.00;95077.16;5090754;28;20146;-48
2023/04/15 08:31:42;;;;;;;3.05;2.85;;;;;;;6.24;100.00;95080.94;5092143;28;20107;-50
2023/04/15 08:34:08;;;;;;;2.55;2.45;;;;;;;6.18;100.00;95088.47;5093697;28;20099;-49
2023/04/15 08:36:34;;;;;;;2.20;2.10;;;;;;;6.30;100.00;95090.91;5084457;28;20044;-53
2023/04/15 08:39:00;;;;;;;2.63;2.50;;;;;;;6.15;100.00;95100.03;5092257;28;20062;-50
2023/04/15 08:41:30;;;;;;;2.53;2.00;;;;;;;6.14;100.00;95107.03;5080645;28;20111;-50
2023/04/15 08:44:05;;;;;;;2.17;2.03;;;;;;;6.05;100.00;95115.66;5080711;28;20086;-48
2023/04/15 08:46:33;;;;;;;2.03;1.92;;;;;;;5.95;100.00;95119.94;5082483;28;20036;-54
2023/04/15 08:48:59;;;;;;;3.17;2.97;;;;;;;5.86;100.00;95125.00;5076214;28;20140;-51
2023/04/15 08:51:26;;;;;;;1.88;1.77;;;;;;;5.75;100.00;95125.06;5073968;28;20231;-57
2023/04/15 08:53:51;;;;;;;2.45;1.80;;;;;;;5.65;100.00;95124.16;5084652;28;20114;-51
2023/04/15 08:56:19;;;;;;;1.90;1.83;;;;;;;5.54;100.00;95125.88;5093136;28;20114;-50
2023/04/15 08:58:45;;;;;;;1.60;1.60;;;;;;;5.45;100.00;95137.03;5083459;28;20089;-48
2023/04/15 09:01:12;;;;;;;1.70;1.60;;;;;;;5.29;100.00;95142.66;5081355;28;20064;-52
2023/04/15 09:03:38;;;;;;;1.52;1.52;;;;;;;5.21;100.00;95142.47;5093559;28;20034;-50
2023/04/15 09:06:05;;;;;;;2.40;2.30;;;;;;;5.16;100.00;95143.63;5087340;28;20043;-52
2023/04/15 09:08:30;;;;;;;2.60;1.95;;;;;;;5.11;100.00;95156.22;5091979;28;20040;-51
2023/04/15 09:10:56;;;;;;;2.30;2.20;;;;;;;5.18;100.00;95161.78;5087004;28;20020;-53
2023/04/15 09:13:21;;;;;;;2.22;2.13;;;;;;;5.30;100.00;95160.00;5086089;28;20020;-52
2023/04/15 09:15:47;;;;;;;1.50;1.50;;;;;;;5.29;100.00;95163.56;5089097;28;20366;-52
2023/04/15 09:18:25;;;;;;;1.63;1.60;;;;;;;5.44;100.00;95172.78;5089571;28;20052;-49
2023/04/15 09:20:52;;;;;;;1.77;1.73;;;;;;;5.54;100.00;95169.41;5088551;28;20048;-51
2023/04/15 09:23:17;;;;;;;2.53;2.33;;;;;;;5.67;100.00;95167.47;5082221;28;20037;-52
2023/04/15 09:25:44;;;;;;;3.00;1.80;;;;;;;5.69;100.00;95165.56;5091480;28;20035;-51
2023/04/15 09:28:10;;;;;;;1.40;1.40;;;;;;;5.72;100.00;95173.16;5085028;28;20086;-52
2023/04/15 09:30:36;;;;;;;2.10;2.00;;;;;;;5.84;100.00;95173.94;5099753;28;20047;-48
2023/04/15 09:33:09;;;;;;;2.30;2.17;;;;;;;5.84;100.00;95175.69;5093878;28;20364;-48
2023/04/15 09:35:35;;;;;;;2.60;2.40;;;;;;;5.81;100.00;95171.56;5091519;28;20040;-52
2023/04/15 09:38:03;;;;;;;2.85;2.05;;;;;;;5.69;100.00;95181.25;5087322;28;20044;-48
2023/04/15 09:40:34;;;;;;;3.45;3.15;;;;;;;5.69;100.00;95183.00;5083433;28;20070;-53
2023/04/15 09:43:01;;;;;;;5.38;4.88;;;;;;;5.76;100.00;95193.78;5089006;28;20059;-51
2023/04/15 09:45:28;;;;;;;4.88;4.38;;;;;;;5.92;100.00;95193.38;5087066;28;20028;-48
2023/04/15 09:47:53;;;;;;;5.68;4.35;;;;;;;5.83;100.00;95194.94;5097002;28;20641;-53
2023/04/15 09:50:21;;;;;;;6.38;4.93;;;;;;;5.98;100.00;95200.72;5090077;28;21138;-52
2023/04/15 09:52:47;;;;;;;12.57;9.60;;;;;;;5.70;100.00;95201.19;5081474;28;20343;-51
2023/04/15 09:55:14;;;;;;;8.35;7.55;;;;;;;5.64;100.00;95209.53;5087600;28;20035;-53
2023/04/15 09:57:40;;;;;;;5.60;5.18;;;;;;;5.42;100.00;95210.38;5089887;28;20518;-46
2023/04/15 10:00:09;;;;;;;5.03;3.95;;;;;;;5.72;100.00;95225.41;5088400;28;20086;-50
2023/04/15 10:02:36;;;;;;;3.03;2.78;;;;;;;5.54;100.00;95222.50;5086356;28;20040;-48
2023/04/15 10:05:02;;;;;;;3.13;2.92;;;;;;;5.57;100.00;95234.44;5093870;28;20027;-47
2023/04/15 10:07:28;;;;;;;2.95;2.75;;;;;;;5.27;100.00;95234.13;5085711;28;20504;-47
2023/04/15 10:09:54;;;;;;;2.63;2.47;;;;;;;5.35;100.00;95230.94;5091076;28;20093;-47
2023/04/15 10:12:21;;;;;;;2.67;2.58;;;;;;;5.35;100.00;95235.34;5082104;28;20024;-48
2023/04/15 10:14:58;;;;;;;6.47;2.30;;;;;;;5.30;100.00;95233.06;5085076;28;20057;-53
2023/04/15 10:17:26;;;;;;;6.47;5.82;;;;;;;5.30;100.00;95236.53;5085103;28;20234;-49
2023/04/15 10:19:53;;;;;;;1.70;1.70;;;;;;;5.37;100.00;95243.88;5087278;28;20040;-50
2023/04/15 10:22:19;;;;;;;2.15;1.50;;;;;;;5.41;100.00;95240.06;5080897;28;20496;-56
2023/04/15 10:24:46;;;;;;;1.70;1.60;;;;;;;5.58;100.00;95230.88;5089674;28;20028;-45
2023/04/15 10:27:11;;;;;;;2.00;1.90;;;;;;;5.69;100.00;95236.09;5089884;28;20038;-47
2023/04/15 10:29:37;;;;;;;1.98;1.88;;;;;;;5.78;100.00;95233.69;5085840;28;20028;-48
2023/04/15 10:32:04;;;;;;;1.88;1.77;;;;;;;5.82;100.00;95240.31;5096051;28;20455;-50
2023/04/15 10:34:31;;;;;;;4.97;3.88;;;;;;;5.69;100.00;95246.53;5090723;28;20035;-46
2023/04/15 10:37:03;;;;;;;5.28;4.53;;;;;;;5.65;100.00;95245.13;5092628;28;20046;-48
2023/04/15 10:39:44;;;;;;;3.00;2.80;;;;;;;5.64;100.00;95250.47;5088301;28;20056;-55
2023/04/15 10:42:18;;;;;;;1.85;1.75;;;;;;;5.72;100.00;95259.34;5086689;28;20039;-54
2023/04/15 10:44:55;;;;;;;3.28;3.08;;;;;;;5.79;100.00;95264.06;5079882;28;20080;-52
2023/04/15 10:47:21;;;;;;;1.98;1.88;;;;;;;5.67;100.00;95264.13;5088995;28;20031;-53
2023/04/15 10:49:58;;;;;;;1.50;1.50;;;;;;;5.30;100.00;95270.47;5088955;28;20024;-51
2023/04/15 10:52:26;;;;;;;2.20;1.70;;;;;;;5.48;100.00;95274.34;5081506;28;20446;-56
2023/04/15 10:55:09;;;;;;;1.88;1.77;;;;;;;5.36;100.00;95279.56;5092353;28;20573;-53
2023/04/15 10:57:38;;;;;;;1.90;1.80;;;;;;;5.50;100.00;95282.91;5080506;28;20024;-55
2023/04/15 11:00:13;;;;;;;2.53;2.38;;;;;;;5.39;100.00;95284.56;5074734;28;20024;-54
2023/04/15 11:02:51;;;;;;;2.15;2.05;;;;;;;5.26;100.00;95284.69;5086564;28;20059;-51
2023/04/15 11:05:18;;;;;;;3.40;3.20;;;;;;;5.24;100.00;95286.59;5095112;28;20067;-54
2023/04/15 11:07:51;;;;;;;5.32;4.30;;;;;;;5.21;100.00;95291.22;5093238;28;20039;-55
2023/04/15 11:10:16;;;;;;;4.55;4.25;;;;;;;5.09;100.00;95283.38;5088392;28;20660;-55
2023/04/15 11:12:43;;;;;;;2.63;2.42;;;;;;;4.96;100.00;95293.94;5087872;28;20111;-55
2023/04/15 11:15:30;;;;;;;7.13;6.53;;;;;;;5.03;100.00;95299.53;5084346;28;20470;-53
2023/04/15 11:17:57;;;;;;;2.53;2.33;;;;;;;5.11;100.00;95296.31;5086458;28;20025;-52
2023/04/15 11:20:23;;;;;;;2.85;2.65;;;;;;;4.97;100.00;95294.75;5089525;28;20028;-52
2023/04/15 11:22:51;;;;;;;2.33;2.22;;;;;;;4.90;100.00;95286.59;5092541;28;20468;-53
2023/04/15 11:25:28;;;;;;;3.47;3.17;;;;;;;4.89;100.00;95297.97;5092549;28;20028;-51
2023/04/15 11:27:54;;;;;;;6.55;5.88;;;;;;;4.87;100.00;95295.47;5094365;28;20039;-52
2023/04/15 11:30:25;;;;;;;1.83;1.73;;;;;;;5.10;100.00;95300.69;5080640;28;20067;-48